Have a Safe July 4th! 

Flight Track Log - Related Links

Times and Time Zones

All times are in EDT time to prevent confusion due to time zone crossing. See the VRT51 flight status page for this flight to view local times or setup timezone preferences in your user account.

Time Position Orientation Groundspeed Altitude Reporting Facility
EDT Latitude Longitude Course Direction KTS MPH feet Rate Location/Type
Mon 12:18:02 PM 36.1000 -86.6833 219° Southwest 168 193 1,200  Level Nashville TRACON
Mon 12:18:32 PM 36.0833 -86.7000 219° Southwest 186 214 2,400 2,286 Climbing Nashville TRACON
Mon 12:19:26 PM 36.0833 -86.7833 270° West 237 273 4,400 1,368 Climbing Nashville TRACON
Mon 12:20:26 PM 36.1167 -86.8333 310° West 289 333 5,000 286 Climbing Nashville TRACON
Mon 12:21:32 PM 36.2000 -86.8000 18° North 303 349 5,000  Level Nashville TRACON
Mon 12:22:32 PM 36.2833 -86.7667 18° North 299 344 5,000  Level Nashville TRACON
Mon 12:23:42 PM 36.3597 -86.7233 25° Northeast 319 367 5,000  Level Memphis Center
Mon 12:24:42 PM 36.4378 -86.6839 22° Northeast 306 352 5,000  Level Memphis Center
Mon 12:25:42 PM 36.5219 -86.6411 22° Northeast 306 352 5,000 -200 Level Memphis Center
Mon 12:26:42 PM 36.5978 -86.6042 21° North 300 345 4,600 -700 Descending Memphis Center
Mon 12:27:42 PM 36.6697 -86.5672 22° Northeast 286 329 3,600 -900 Descending Memphis Center
Mon 12:28:42 PM 36.7417 -86.5328 21° North 286 329 2,800 -400 Descending Memphis Center
Mon 12:29:42 PM 36.8072 -86.5011 21° North 265 305 2,800  Level Memphis Center
Mon 12:30:42 PM 36.8708 -86.4669 23° Northeast 252 290 2,800  Level Memphis Center
Mon 12:31:42 PM 36.9344 -86.4378 20° North 247 284 2,800 200 Level Memphis Center
Mon 12:32:42 PM 36.9892 -86.3858 37° Northeast 242 278 3,200 200 Climbing Memphis Center
Mon 12:33:42 PM 37.0306 -86.3161 53° Northeast 252 290 3,200  Level Memphis Center
Mon 12:34:42 PM 37.0911 -86.2533 40° Northeast 275 316 3,200  Level Memphis Center
Mon 12:35:42 PM 37.1244 -86.3142 305° West 137 158 3,200 -200 Level Memphis Center
Mon 12:36:42 PM 37.0731 -86.3425 204° Southwest 124 143 2,800 -650 Descending Memphis Center
Mon 12:37:42 PM 37.0344 -86.3731 212° Southwest 160 184 1,900 -750 Descending Memphis Center
Mon 12:38:42 PM 36.9997 -86.3956 207° Southwest 150 173 1,300 -500 Descending Memphis Center
Mon 12:39:42 PM 36.9714 -86.4153 209° Southwest 133 153 900 -400 Descending Memphis Center

Login

Don't have an account? Register now (free) for customized features, flight alerts, and more!